sensor_id;sensor_type;location;lat;lon;timestamp;P1;durP1;ratioP1;P2;durP2;ratioP2
35592;SDS011;64447;52.140;5.602;2023-08-21T00:02:19;7.13;;;4.85;;
35592;SDS011;64447;52.140;5.602;2023-08-21T00:04:45;7.53;;;4.77;;
35592;SDS011;64447;52.140;5.602;2023-08-21T00:07:11;6.43;;;4.45;;
35592;SDS011;64447;52.140;5.602;2023-08-21T00:09:37;7.50;;;4.88;;
35592;SDS011;64447;52.140;5.602;2023-08-21T00:12:03;7.53;;;5.00;;
35592;SDS011;64447;52.140;5.602;2023-08-21T00:14:29;8.63;;;4.70;;
35592;SDS011;64447;52.140;5.602;2023-08-21T00:16:55;6.32;;;4.80;;
35592;SDS011;64447;52.140;5.602;2023-08-21T00:22:42;8.27;;;4.85;;
35592;SDS011;64447;52.140;5.602;2023-08-21T00:25:07;8.13;;;5.47;;
35592;SDS011;64447;52.140;5.602;2023-08-21T00:27:33;7.70;;;5.17;;
35592;SDS011;64447;52.140;5.602;2023-08-21T00:30:00;7.50;;;4.95;;
35592;SDS011;64447;52.140;5.602;2023-08-21T00:32:25;10.05;;;5.38;;
35592;SDS011;64447;52.140;5.602;2023-08-21T00:34:51;7.17;;;4.80;;
35592;SDS011;64447;52.140;5.602;2023-08-21T00:37:17;7.23;;;5.20;;
35592;SDS011;64447;52.140;5.602;2023-08-21T00:39:42;8.25;;;5.63;;
35592;SDS011;64447;52.140;5.602;2023-08-21T00:42:08;9.17;;;5.63;;
35592;SDS011;64447;52.140;5.602;2023-08-21T00:44:33;8.95;;;5.82;;
35592;SDS011;64447;52.140;5.602;2023-08-21T00:46:59;8.53;;;5.90;;
35592;SDS011;64447;52.140;5.602;2023-08-21T00:52:47;9.00;;;5.25;;
35592;SDS011;64447;52.140;5.602;2023-08-21T00:55:14;6.38;;;5.10;;
35592;SDS011;64447;52.140;5.602;2023-08-21T00:57:40;10.80;;;5.63;;
35592;SDS011;64447;52.140;5.602;2023-08-21T01:00:06;7.50;;;6.05;;
35592;SDS011;64447;52.140;5.602;2023-08-21T01:02:35;8.57;;;5.75;;
35592;SDS011;64447;52.140;5.602;2023-08-21T01:05:01;10.40;;;5.73;;
35592;SDS011;64447;52.140;5.602;2023-08-21T01:07:26;7.57;;;5.80;;
35592;SDS011;64447;52.140;5.602;2023-08-21T01:12:37;7.55;;;5.63;;
35592;SDS011;64447;52.140;5.602;2023-08-21T01:15:13;9.32;;;5.97;;
35592;SDS011;64447;52.140;5.602;2023-08-21T01:17:39;7.05;;;5.68;;
35592;SDS011;64447;52.140;5.602;2023-08-21T01:20:07;7.97;;;5.78;;
35592;SDS011;64447;52.140;5.602;2023-08-21T01:22:42;9.15;;;6.00;;
35592;SDS011;64447;52.140;5.602;2023-08-21T01:25:11;7.85;;;6.05;;
35592;SDS011;64447;52.140;5.602;2023-08-21T01:27:38;7.78;;;5.97;;
35592;SDS011;64447;52.140;5.602;2023-08-21T01:30:06;8.33;;;5.93;;
35592;SDS011;64447;52.140;5.602;2023-08-21T01:35:13;9.20;;;6.55;;
35592;SDS011;64447;52.140;5.602;2023-08-21T01:37:39;8.67;;;5.70;;
35592;SDS011;64447;52.140;5.602;2023-08-21T01:40:06;8.63;;;5.70;;
35592;SDS011;64447;52.140;5.602;2023-08-21T01:42:32;7.65;;;5.78;;
35592;SDS011;64447;52.140;5.602;2023-08-21T01:44:57;8.27;;;5.73;;
35592;SDS011;64447;52.140;5.602;2023-08-21T01:47:23;6.67;;;5.97;;
35592;SDS011;64447;52.140;5.602;2023-08-21T01:49:48;7.00;;;5.43;;
35592;SDS011;64447;52.140;5.602;2023-08-21T01:52:17;9.15;;;5.43;;
35592;SDS011;64447;52.140;5.602;2023-08-21T01:54:43;8.10;;;5.88;;
35592;SDS011;64447;52.140;5.602;2023-08-21T01:57:09;8.67;;;6.00;;
35592;SDS011;64447;52.140;5.602;2023-08-21T01:59:34;7.70;;;5.90;;
35592;SDS011;64447;52.140;5.602;2023-08-21T02:02:00;7.77;;;5.90;;
35592;SDS011;64447;52.140;5.602;2023-08-21T02:07:47;7.13;;;5.82;;
35592;SDS011;64447;52.140;5.602;2023-08-21T02:10:13;8.20;;;5.97;;
35592;SDS011;64447;52.140;5.602;2023-08-21T02:12:39;8.23;;;5.80;;
35592;SDS011;64447;52.140;5.602;2023-08-21T02:15:04;7.55;;;5.50;;
35592;SDS011;64447;52.140;5.602;2023-08-21T02:17:30;7.65;;;5.55;;
35592;SDS011;64447;52.140;5.602;2023-08-21T02:19:57;10.52;;;5.95;;
35592;SDS011;64447;52.140;5.602;2023-08-21T02:22:22;9.37;;;6.17;;
35592;SDS011;64447;52.140;5.602;2023-08-21T02:24:48;8.52;;;5.60;;
35592;SDS011;64447;52.140;5.602;2023-08-21T02:27:14;8.93;;;6.10;;
35592;SDS011;64447;52.140;5.602;2023-08-21T02:29:39;8.07;;;5.60;;
35592;SDS011;64447;52.140;5.602;2023-08-21T02:32:05;8.93;;;5.82;;
35592;SDS011;64447;52.140;5.602;2023-08-21T02:37:53;8.35;;;5.65;;
35592;SDS011;64447;52.140;5.602;2023-08-21T02:40:18;7.93;;;5.35;;
35592;SDS011;64447;52.140;5.602;2023-08-21T02:42:44;7.43;;;5.87;;
35592;SDS011;64447;52.140;5.602;2023-08-21T02:45:09;8.77;;;5.78;;
35592;SDS011;64447;52.140;5.602;2023-08-21T02:47:36;7.82;;;5.20;;
35592;SDS011;64447;52.140;5.602;2023-08-21T02:50:03;6.97;;;5.43;;
35592;SDS011;64447;52.140;5.602;2023-08-21T02:52:29;7.80;;;5.72;;
35592;SDS011;64447;52.140;5.602;2023-08-21T02:54:55;7.80;;;5.40;;
35592;SDS011;64447;52.140;5.602;2023-08-21T02:57:20;8.77;;;5.40;;
35592;SDS011;64447;52.140;5.602;2023-08-21T02:59:46;9.00;;;6.55;;
35592;SDS011;64447;52.140;5.602;2023-08-21T03:02:11;13.77;;;6.40;;
35592;SDS011;64447;52.140;5.602;2023-08-21T03:07:59;8.27;;;5.97;;
35592;SDS011;64447;52.140;5.602;2023-08-21T03:10:24;8.57;;;5.97;;
35592;SDS011;64447;52.140;5.602;2023-08-21T03:12:51;10.32;;;5.78;;
35592;SDS011;64447;52.140;5.602;2023-08-21T03:15:17;7.75;;;5.70;;
35592;SDS011;64447;52.140;5.602;2023-08-21T03:17:42;7.67;;;4.70;;
35592;SDS011;64447;52.140;5.602;2023-08-21T03:20:08;9.90;;;5.85;;
35592;SDS011;64447;52.140;5.602;2023-08-21T03:22:34;7.27;;;5.20;;
35592;SDS011;64447;52.140;5.602;2023-08-21T03:25:00;6.40;;;5.03;;
35592;SDS011;64447;52.140;5.602;2023-08-21T03:27:25;8.53;;;5.60;;
35592;SDS011;64447;52.140;5.602;2023-08-21T03:29:51;5.47;;;4.90;;
35592;SDS011;64447;52.140;5.602;2023-08-21T03:32:17;7.87;;;5.33;;
35592;SDS011;64447;52.140;5.602;2023-08-21T03:38:04;8.18;;;5.57;;
35592;SDS011;64447;52.140;5.602;2023-08-21T03:40:30;8.73;;;5.30;;
35592;SDS011;64447;52.140;5.602;2023-08-21T03:42:55;7.73;;;5.37;;
35592;SDS011;64447;52.140;5.602;2023-08-21T03:45:21;8.90;;;5.40;;
35592;SDS011;64447;52.140;5.602;2023-08-21T03:47:47;6.40;;;5.30;;
35592;SDS011;64447;52.140;5.602;2023-08-21T03:50:12;6.85;;;5.72;;
35592;SDS011;64447;52.140;5.602;2023-08-21T03:52:38;6.93;;;4.88;;
35592;SDS011;64447;52.140;5.602;2023-08-21T03:55:03;6.60;;;5.03;;
35592;SDS011;64447;52.140;5.602;2023-08-21T03:57:29;8.38;;;5.00;;
35592;SDS011;64447;52.140;5.602;2023-08-21T03:59:55;6.70;;;5.40;;
35592;SDS011;64447;52.140;5.602;2023-08-21T04:02:20;8.82;;;5.43;;
35592;SDS011;64447;52.140;5.602;2023-08-21T04:08:08;10.18;;;5.38;;
35592;SDS011;64447;52.140;5.602;2023-08-21T04:10:33;9.20;;;5.20;;
35592;SDS011;64447;52.140;5.602;2023-08-21T04:12:59;8.52;;;5.13;;
35592;SDS011;64447;52.140;5.602;2023-08-21T04:15:25;10.37;;;5.93;;
35592;SDS011;64447;52.140;5.602;2023-08-21T04:17:51;7.80;;;5.20;;
35592;SDS011;64447;52.140;5.602;2023-08-21T17:11:37;5.05;;;1.90;;
35592;SDS011;64447;52.140;5.602;2023-08-21T17:14:02;5.13;;;2.17;;
35592;SDS011;64447;52.140;5.602;2023-08-21T17:16:28;4.32;;;1.90;;
35592;SDS011;64447;52.140;5.602;2023-08-21T17:18:53;4.00;;;2.37;;
35592;SDS011;64447;52.140;5.602;2023-08-21T17:21:19;4.60;;;2.20;;
35592;SDS011;64447;52.140;5.602;2023-08-21T17:23:45;4.53;;;2.20;;
35592;SDS011;64447;52.140;5.602;2023-08-21T17:26:10;4.87;;;2.30;;
35592;SDS011;64447;52.140;5.602;2023-08-21T17:28:38;5.85;;;2.63;;
35592;SDS011;64447;52.140;5.602;2023-08-21T17:31:03;3.15;;;2.10;;
35592;SDS011;64447;52.140;5.602;2023-08-21T17:33:29;5.03;;;2.40;;
35592;SDS011;64447;52.140;5.602;2023-08-21T17:35:54;6.67;;;2.77;;
35592;SDS011;64447;52.140;5.602;2023-08-21T17:41:42;8.60;;;2.90;;
35592;SDS011;64447;52.140;5.602;2023-08-21T17:44:08;6.63;;;3.75;;
35592;SDS011;64447;52.140;5.602;2023-08-21T17:46:34;5.32;;;3.10;;
35592;SDS011;64447;52.140;5.602;2023-08-21T18:44:40;8.80;;;3.63;;
35592;SDS011;64447;52.140;5.602;2023-08-21T18:47:05;9.50;;;3.45;;
35592;SDS011;64447;52.140;5.602;2023-08-21T18:49:31;8.37;;;3.67;;
35592;SDS011;64447;52.140;5.602;2023-08-21T18:51:57;7.63;;;3.97;;
35592;SDS011;64447;52.140;5.602;2023-08-21T18:59:14;7.68;;;3.38;;
35592;SDS011;64447;52.140;5.602;2023-08-21T19:01:40;7.47;;;3.53;;
35592;SDS011;64447;52.140;5.602;2023-08-21T19:04:06;7.18;;;3.20;;
35592;SDS011;64447;52.140;5.602;2023-08-21T19:06:32;6.20;;;3.20;;
35592;SDS011;64447;52.140;5.602;2023-08-21T19:12:19;5.77;;;3.33;;
35592;SDS011;64447;52.140;5.602;2023-08-21T19:14:44;6.40;;;3.53;;
35592;SDS011;64447;52.140;5.602;2023-08-21T19:17:10;6.77;;;3.60;;
